Time;durP1;ratioP1;P1;durP2;ratioP2;P2;SDS_P1;SDS_P2;PMS_P1;PMS_P2;Temp;Humidity;BMP_temperature;BMP_pressure;BME280_temperature;BME280_humidity;BME280_pressure;Samples;Min_cycle;Max_cycle;Signal;HPM_P1;HPM_P2
2022/09/25 00:00:26;;;;;;;6.40;4.22;;;23.50;55.40;;;;;;5008841;28;20034;-69
2022/09/25 00:02:52;;;;;;;7.00;4.15;;;23.40;55.30;;;;;;5044221;28;20080;-70
2022/09/25 00:05:18;;;;;;;6.07;4.28;;;23.40;55.30;;;;;;5026799;28;20080;-70
2022/09/25 00:07:44;;;;;;;6.85;4.45;;;23.40;55.40;;;;;;5030337;28;20038;-70
2022/09/25 00:10:10;;;;;;;6.35;4.38;;;23.40;55.40;;;;;;4995846;28;20387;-70
2022/09/25 00:12:36;;;;;;;7.13;4.93;;;23.40;55.40;;;;;;5008597;28;20034;-70
2022/09/25 00:15:02;;;;;;;7.20;4.45;;;23.30;55.50;;;;;;5018481;28;20046;-70
2022/09/25 00:17:29;;;;;;;5.93;4.82;;;23.30;55.60;;;;;;5028919;28;20078;-70
2022/09/25 00:19:54;;;;;;;6.55;4.40;;;23.30;55.70;;;;;;5027708;28;20057;-70
2022/09/25 00:22:23;;;;;;;6.47;4.10;;;23.40;55.60;;;;;;5027161;28;20111;-70
2022/09/25 00:24:49;;;;;;;6.63;4.72;;;23.40;55.60;;;;;;5020333;28;20030;-70
2022/09/25 00:27:17;;;;;;;7.65;4.32;;;23.30;55.60;;;;;;5000652;28;20793;-69
2022/09/25 00:29:43;;;;;;;6.43;4.18;;;23.40;55.50;;;;;;5017262;28;20399;-70
2022/09/25 00:32:11;;;;;;;6.70;4.47;;;23.40;55.50;;;;;;4994478;28;20157;-69
2022/09/25 00:34:38;;;;;;;8.48;4.88;;;23.40;55.60;;;;;;5004395;28;20030;-69
2022/09/25 00:37:04;;;;;;;7.13;4.75;;;23.40;55.60;;;;;;5017044;28;20410;-70
2022/09/25 00:39:32;;;;;;;7.68;5.00;;;23.40;55.50;;;;;;5028458;28;20594;-70
2022/09/25 00:41:58;;;;;;;7.80;5.57;;;23.40;55.60;;;;;;5028592;28;20026;-70
2022/09/25 00:45:07;;;;;;;12.65;4.45;;;23.50;55.70;;;;;;5028167;28;20148;-69
2022/09/25 00:47:55;;;;;;;9.00;5.32;;;23.50;55.70;;;;;;4974480;28;20741;-70
2022/09/25 00:50:28;;;;;;;7.15;4.57;;;23.50;55.60;;;;;;4970966;28;20050;-70
2022/09/25 00:53:02;;;;;;;5.95;4.40;;;23.40;55.50;;;;;;4992125;28;20199;-69
2022/09/25 00:55:30;;;;;;;8.82;5.25;;;23.50;55.60;;;;;;4992354;28;20034;-70
2022/09/25 00:57:58;;;;;;;6.47;4.70;;;23.50;55.50;;;;;;4990368;28;20097;-70
2022/09/25 01:00:24;;;;;;;6.22;5.10;;;23.50;55.50;;;;;;4984305;28;20074;-70
2022/09/25 01:02:53;;;;;;;8.57;5.00;;;23.70;55.60;;;;;;4972374;28;20448;-70
2022/09/25 01:05:26;;;;;;;8.68;4.82;;;23.60;55.50;;;;;;4977665;28;20114;-70
2022/09/25 01:07:54;;;;;;;5.90;4.55;;;23.50;55.50;;;;;;4976668;28;20035;-69
2022/09/25 01:10:20;;;;;;;8.02;5.00;;;23.60;55.50;;;;;;4953464;28;20070;-70
2022/09/25 01:12:49;;;;;;;6.28;4.25;;;23.70;55.60;;;;;;4958299;28;20050;-70
2022/09/25 01:15:18;;;;;;;5.60;4.40;;;23.50;55.50;;;;;;4985929;28;20109;-70
2022/09/25 01:18:10;;;;;;;8.07;4.20;;;23.60;55.50;;;;;;4991741;28;20472;-70
2022/09/25 01:20:45;;;;;;;6.35;4.22;;;23.60;55.50;;;;;;4892932;29;20037;-69
2022/09/25 01:23:23;;;;;;;6.32;4.82;;;23.60;55.40;;;;;;4895808;29;20043;-70
2022/09/25 01:25:59;;;;;;;6.03;4.50;;;23.60;55.40;;;;;;4933911;29;20044;-70
2022/09/25 01:28:41;;;;;;;7.70;4.10;;;23.60;55.40;;;;;;4929136;28;20065;-70
2022/09/25 01:31:16;;;;;;;4.70;3.78;;;23.60;55.30;;;;;;4953771;28;20106;-70
2022/09/25 01:33:50;;;;;;;5.93;3.35;;;23.60;55.40;;;;;;4949399;29;20135;-70
2022/09/25 01:36:28;;;;;;;5.10;3.22;;;23.60;55.30;;;;;;4965572;28;20117;-70
2022/09/25 01:39:07;;;;;;;4.57;2.95;;;23.60;55.30;;;;;;4942403;29;20050;-70
2022/09/25 01:41:49;;;;;;;5.05;3.97;;;23.60;55.30;;;;;;4933195;29;20071;-70
2022/09/25 01:44:42;;;;;;;6.65;3.03;;;23.50;55.40;;;;;;4956292;28;20043;-70
2022/09/25 01:47:17;;;;;;;3.92;2.97;;;23.50;55.50;;;;;;4967106;28;20061;-70
2022/09/25 01:49:56;;;;;;;4.93;3.67;;;23.50;55.60;;;;;;4963638;28;20047;-70
2022/09/25 01:52:31;;;;;;;5.22;3.85;;;23.50;55.60;;;;;;4932989;29;20035;-70
2022/09/25 01:55:09;;;;;;;5.97;3.80;;;23.50;55.60;;;;;;4916174;29;20040;-70
2022/09/25 01:58:09;;;;;;;6.40;3.60;;;23.30;55.60;;;;;;4958086;28;20399;-70
2022/09/25 02:00:41;;;;;;;5.50;3.75;;;23.40;55.60;;;;;;4981879;28;20103;-70
2022/09/25 02:03:20;;;;;;;6.28;4.13;;;23.40;55.60;;;;;;5005527;28;20615;-70
2022/09/25 02:05:52;;;;;;;7.30;3.85;;;23.40;55.50;;;;;;4998904;28;20049;-70
2022/09/25 02:08:23;;;;;;;8.10;4.82;;;23.30;55.50;;;;;;4974664;28;20054;-69
2022/09/25 02:10:54;;;;;;;6.65;3.85;;;23.50;55.60;;;;;;4985703;28;20042;-70
2022/09/25 02:13:24;;;;;;;7.63;4.68;;;23.40;55.50;;;;;;4970844;28;20042;-70
2022/09/25 02:15:56;;;;;;;8.43;4.50;;;23.40;55.50;;;;;;4999628;28;20089;-69
2022/09/25 02:21:18;;;;;;;9.93;4.45;;;23.30;55.60;;;;;;5002991;28;20479;-70
2022/09/25 02:24:16;;;;;;;5.28;3.95;;;23.30;55.70;;;;;;5009755;28;20125;-70
2022/09/25 02:26:43;;;;;;;9.75;4.10;;;23.30;55.70;;;;;;5009976;28;20369;-69
2022/09/25 02:29:09;;;;;;;7.63;3.90;;;23.20;55.80;;;;;;4998456;28;20033;-69
2022/09/25 02:31:44;;;;;;;6.15;4.40;;;23.20;55.70;;;;;;5000350;28;20092;-70
2022/09/25 02:34:10;;;;;;;4.90;3.83;;;23.30;55.80;;;;;;5000187;28;20488;-70
2022/09/25 02:36:36;;;;;;;4.72;3.78;;;23.30;55.80;;;;;;5014314;28;20120;-69
2022/09/25 02:39:04;;;;;;;4.82;4.22;;;23.20;55.60;;;;;;5031986;28;20116;-70
2022/09/25 02:42:00;;;;;;;5.78;4.28;;;23.30;55.70;;;;;;5031085;28;20104;-70
2022/09/25 02:44:46;;;;;;;7.72;4.25;;;23.20;55.60;;;;;;4981182;28;20039;-70
2022/09/25 02:47:27;;;;;;;4.57;3.67;;;23.30;55.60;;;;;;4988088;28;20172;-70
2022/09/25 02:49:53;;;;;;;8.05;3.80;;;23.20;55.40;;;;;;4987209;28;20127;-70
2022/09/25 02:52:34;;;;;;;7.28;4.75;;;23.30;55.60;;;;;;4933899;28;20478;-70
2022/09/25 02:55:14;;;;;;;8.65;4.18;;;23.30;55.60;;;;;;4932420;29;20481;-69
2022/09/25 02:58:17;;;;;;;6.43;4.10;;;23.30;55.60;;;;;;4932738;29;21856;-70
2022/09/25 03:00:46;;;;;;;;;;;23.30;55.60;;;;;;4907572;29;20044;-70
2022/09/25 03:03:15;;;;;;;6.20;4.40;;;23.30;55.50;;;;;;4932039;29;20055;-70
2022/09/25 03:05:42;;;;;;;6.45;4.55;;;23.20;55.50;;;;;;4929029;29;20158;-70
2022/09/25 03:10:53;;;;;;;5.35;3.58;;;23.10;55.50;;;;;;4925221;29;20043;-70
2022/09/25 03:13:30;;;;;;;4.80;2.80;;;23.10;55.60;;;;;;4931850;29;20625;-70
2022/09/25 03:15:59;;;;;;;5.18;3.60;;;23.10;55.70;;;;;;4925005;29;20532;-70
2022/09/25 03:18:27;;;;;;;5.00;3.38;;;23.20;55.70;;;;;;4931870;29;20043;-70
2022/09/25 03:20:54;;;;;;;5.47;2.97;;;23.10;55.80;;;;;;4915261;29;20618;-69
2022/09/25 03:23:20;;;;;;;4.07;3.20;;;23.20;55.70;;;;;;4912602;29;20540;-69
2022/09/25 03:25:46;;;;;;;3.90;3.30;;;23.00;55.70;;;;;;4930043;29;20161;-70
2022/09/25 03:28:13;;;;;;;3.92;3.30;;;23.10;55.80;;;;;;4914982;29;20031;-70
2022/09/25 03:30:40;;;;;;;4.03;3.63;;;23.10;55.80;;;;;;4929472;28;20115;-70
2022/09/25 03:33:16;;;;;;;6.10;3.33;;;23.20;55.80;;;;;;4911727;29;20040;-70
2022/09/25 03:35:42;;;;;;;5.93;4.00;;;23.10;55.60;;;;;;4915000;29;20042;-69
2022/09/25 03:38:09;;;;;;;5.57;4.07;;;23.10;55.50;;;;;;4981053;28;20125;-69
2022/09/25 03:40:35;;;;;;;5.70;3.83;;;23.10;55.60;;;;;;5027414;28;20497;-69
2022/09/25 03:43:01;;;;;;;8.55;4.55;;;23.10;55.70;;;;;;5028444;28;20470;-70
2022/09/25 03:45:27;;;;;;;7.68;3.95;;;23.00;55.60;;;;;;5022837;28;20482;-70
2022/09/25 03:47:53;;;;;;;6.53;4.32;;;23.00;55.60;;;;;;5029703;28;20037;-70
2022/09/25 03:50:19;;;;;;;6.57;3.72;;;23.00;55.70;;;;;;5028862;28;20391;-69
2022/09/25 03:52:45;;;;;;;6.60;4.03;;;23.00;55.70;;;;;;5031137;28;20038;-70
2022/09/25 03:55:12;;;;;;;5.65;3.90;;;23.00;55.70;;;;;;5005878;28;20712;-70
2022/09/25 03:57:38;;;;;;;5.55;3.88;;;22.90;55.80;;;;;;4994123;28;20038;-70
2022/09/25 04:00:05;;;;;;;4.80;3.83;;;23.00;55.80;;;;;;5000673;28;20040;-70
2022/09/25 04:02:38;;;;;;;7.32;3.92;;;22.90;55.80;;;;;;4991326;28;20053;-70
2022/09/25 04:05:04;;;;;;;4.30;3.65;;;23.00;55.80;;;;;;5002529;28;20033;-70
2022/09/25 04:07:31;;;;;;;6.85;3.30;;;23.10;55.80;;;;;;5027729;28;20053;-70
2022/09/25 04:09:57;;;;;;;8.20;3.67;;;23.00;55.60;;;;;;5011379;28;20419;-70
2022/09/25 04:12:23;;;;;;;5.07;3.67;;;23.00;55.60;;;;;;5011312;28;20036;-70
2022/09/25 04:14:49;;;;;;;4.35;3.55;;;23.00;55.60;;;;;;5014315;28;20034;-70
2022/09/25 04:17:15;;;;;;;6.75;3.47;;;23.10;55.70;;;;;;5011649;28;20030;-70
2022/09/25 04:19:41;;;;;;;6.57;3.53;;;23.00;55.60;;;;;;5003794;28;20037;-70
2022/09/25 04:22:07;;;;;;;4.40;3.30;;;23.10;55.70;;;;;;4995546;28;20033;-70
2022/09/25 04:24:49;;;;;;;2.90;2.60;;;23.20;55.60;;;;;;5003318;28;20467;-70
2022/09/25 04:27:21;;;;;;;4.78;3.55;;;23.10;55.50;;;;;;5012913;28;20048;-70
2022/09/25 04:29:48;;;;;;;4.50;3.20;;;23.10;55.60;;;;;;5022027;28;20045;-70
2022/09/25 04:35:01;;;;;;;5.97;3.65;;;23.00;55.40;;;;;;5017995;28;20087;-70
2022/09/25 04:37:27;;;;;;;3.88;3.30;;;23.10;55.50;;;;;;5033029;28;20120;-70
2022/09/25 04:39:54;;;;;;;5.07;3.08;;;23.20;55.40;;;;;;5033162;28;20109;-70
2022/09/25 04:42:23;;;;;;;4.82;3.13;;;23.10;55.40;;;;;;5034647;28;20088;-70
2022/09/25 04:44:51;;;;;;;5.57;3.72;;;23.00;55.40;;;;;;5030967;28;20038;-70
2022/09/25 04:47:18;;;;;;;7.20;3.80;;;23.20;55.50;;;;;;5026785;28;20045;-70
2022/09/25 04:49:44;;;;;;;5.15;3.15;;;23.00;55.40;;;;;;5031474;28;20038;-70
2022/09/25 04:52:12;;;;;;;7.65;3.50;;;23.00;55.60;;;;;;5027882;28;20087;-70
2022/09/25 04:54:38;;;;;;;6.97;3.67;;;23.10;55.70;;;;;;5015780;28;20025;-69
2022/09/25 04:57:04;;;;;;;5.57;3.83;;;23.00;55.50;;;;;;5025062;28;20064;-69
2022/09/25 04:59:31;;;;;;;5.53;3.63;;;23.10;55.60;;;;;;5032499;28;20051;-70
2022/09/25 05:01:57;;;;;;;6.25;4.03;;;22.90;55.40;;;;;;5017983;28;20064;-68
2022/09/25 05:04:23;;;;;;;7.88;4.70;;;23.00;55.40;;;;;;5013086;28;20164;-68
2022/09/25 05:06:50;;;;;;;8.27;3.00;;;23.00;55.40;;;;;;5013202;28;20124;-68
2022/09/25 05:09:16;;;;;;;2.55;1.88;;;23.00;51.20;;;;;;5028356;28;20041;-68
2022/09/25 05:11:44;;;;;;;2.92;2.13;;;23.10;50.50;;;;;;5011491;28;20089;-69
2022/09/25 05:14:11;;;;;;;1.40;1.30;;;23.20;49.60;;;;;;5023069;28;20445;-70
2022/09/25 05:16:37;;;;;;;2.78;1.35;;;23.50;50.00;;;;;;5044964;28;20045;-69
2022/09/25 05:19:03;;;;;;;2.38;1.95;;;23.50;50.00;;;;;;5039538;28;20044;-70
2022/09/25 05:21:29;;;;;;;4.07;1.90;;;23.60;50.60;;;;;;5013423;28;20036;-69
2022/09/25 05:23:55;;;;;;;2.80;2.50;;;23.70;49.10;;;;;;5032618;28;20037;-69
2022/09/25 05:26:22;;;;;;;3.10;2.78;;;23.80;51.30;;;;;;5032473;28;20403;-69
2022/09/25 05:28:49;;;;;;;5.35;2.33;;;23.90;51.90;;;;;;5028357;28;20563;-71
2022/09/25 05:31:16;;;;;;;3.75;2.40;;;23.90;50.20;;;;;;5027631;28;20111;-70
2022/09/25 05:33:42;;;;;;;3.55;3.25;;;24.00;50.70;;;;;;5026720;28;20045;-70
2022/09/25 05:36:09;;;;;;;4.07;2.97;;;24.00;48.10;;;;;;4998662;28;20049;-70
2022/09/25 05:38:38;;;;;;;9.00;5.13;;;24.00;46.90;;;;;;5030843;28;20493;-71
2022/09/25 05:41:06;;;;;;;7.88;5.05;;;23.90;51.60;;;;;;5026618;28;20045;-70
2022/09/25 05:43:33;;;;;;;7.22;5.45;;;24.00;54.40;;;;;;5030757;28;20107;-71
2022/09/25 05:46:00;;;;;;;9.20;4.90;;;24.00;56.30;;;;;;5023887;28;20053;-70
2022/09/25 05:48:26;;;;;;;8.38;6.07;;;23.90;54.50;;;;;;5012121;28;20034;-72
2022/09/25 05:50:55;;;;;;;8.68;6.10;;;23.90;55.20;;;;;;5022633;28;20040;-73
2022/09/25 05:53:23;;;;;;;16.33;6.25;;;23.90;57.10;;;;;;5012397;28;20383;-70
2022/09/25 05:55:53;;;;;;;10.10;5.78;;;24.00;59.80;;;;;;5020928;28;20026;-74
2022/09/25 05:58:20;;;;;;;7.90;5.65;;;23.90;62.30;;;;;;5021127;28;20065;-71
2022/09/25 06:00:47;;;;;;;9.15;5.97;;;24.00;59.50;;;;;;5006980;28;20038;-73
2022/09/25 06:03:13;;;;;;;7.53;5.68;;;24.00;59.20;;;;;;5015527;28;20475;-72
2022/09/25 06:05:40;;;;;;;8.02;5.72;;;24.00;58.60;;;;;;5010497;28;20041;-74
2022/09/25 06:08:06;;;;;;;9.77;6.53;;;24.00;58.10;;;;;;5013775;28;20030;-74
2022/09/25 06:10:33;;;;;;;9.68;6.30;;;23.90;57.90;;;;;;5012979;28;20061;-71
2022/09/25 06:13:01;;;;;;;10.52;6.13;;;24.00;57.80;;;;;;5013425;28;20013;-71
2022/09/25 06:15:28;;;;;;;10.45;6.90;;;23.80;57.60;;;;;;5023603;28;20889;-72
2022/09/25 06:17:57;;;;;;;9.25;6.22;;;24.00;57.70;;;;;;5013155;28;20123;-72
2022/09/25 06:20:23;;;;;;;10.73;6.63;;;24.00;57.60;;;;;;5013835;28;20475;-73
2022/09/25 06:22:56;;;;;;;11.10;6.65;;;24.00;57.60;;;;;;5018614;28;20033;-74
2022/09/25 06:25:25;;;;;;;;;;;24.00;57.50;;;;;;5028122;28;20083;-71
2022/09/25 06:28:11;;;;;;;9.27;6.40;;;24.10;57.50;;;;;;5016499;28;19914;-72
2022/09/25 06:30:37;;;;;;;9.63;6.70;;;24.00;57.40;;;;;;5015207;28;20344;-71
2022/09/25 06:33:11;;;;;;;6.93;4.32;;;24.10;57.80;;;;;;5016231;28;20445;-70
2022/09/25 06:35:48;;;;;;;6.10;4.57;;;24.20;50.40;;;;;;5029839;28;20033;-72
2022/09/25 06:38:15;;;;;;;6.38;3.47;;;24.30;49.70;;;;;;5041884;28;20103;-73
2022/09/25 06:40:42;;;;;;;10.30;3.97;;;24.40;48.70;;;;;;5048413;28;20041;-71
2022/09/25 06:43:15;;;;;;;5.95;3.33;;;24.50;49.20;;;;;;4997445;28;20087;-70
2022/09/25 06:45:41;;;;;;;7.28;4.28;;;24.70;49.00;;;;;;5033664;28;20025;-74
2022/09/25 06:48:15;;;;;;;7.97;4.20;;;24.80;47.10;;;;;;5027163;28;20538;-72
2022/09/25 06:50:50;;;;;;;5.47;2.97;;;24.60;45.30;;;;;;5027704;28;20119;-72
2022/09/25 06:53:17;;;;;;;4.57;3.42;;;24.70;44.10;;;;;;5030554;28;20025;-71
2022/09/25 06:55:44;;;;;;;9.50;6.65;;;24.80;43.20;;;;;;5038718;28;20156;-71
2022/09/25 06:58:13;;;;;;;9.45;6.47;;;24.90;50.40;;;;;;5018839;28;20033;-71
2022/09/25 07:00:40;;;;;;;7.47;6.53;;;24.70;51.80;;;;;;5029750;28;20040;-71
2022/09/25 07:05:51;;;;;;;7.43;5.15;;;24.60;52.40;;;;;;4993146;28;20740;-72
2022/09/25 07:08:19;;;;;;;7.97;5.55;;;24.40;52.50;;;;;;4988009;28;20149;-71
2022/09/25 07:10:54;;;;;;;12.18;6.28;;;24.60;52.80;;;;;;4988683;28;20046;-70
2022/09/25 07:13:23;;;;;;;7.25;5.53;;;24.40;53.00;;;;;;4988514;28;20041;-70
2022/09/25 07:15:53;;;;;;;8.45;4.65;;;24.40;53.30;;;;;;4988265;28;20555;-70
2022/09/25 07:18:23;;;;;;;5.63;4.50;;;24.40;53.40;;;;;;4991049;28;20030;-71
2022/09/25 07:20:50;;;;;;;6.30;4.60;;;24.30;53.50;;;;;;4969249;28;20137;-71
2022/09/25 07:23:18;;;;;;;6.07;4.20;;;24.30;53.60;;;;;;4979910;28;20034;-71
2022/09/25 07:25:45;;;;;;;4.82;3.75;;;24.40;53.50;;;;;;4995718;28;20062;-70
2022/09/25 07:28:12;;;;;;;5.00;4.22;;;24.50;53.50;;;;;;5008083;28;20034;-70
2022/09/25 07:30:40;;;;;;;10.00;4.60;;;24.50;53.40;;;;;;5008700;28;20610;-70
2022/09/25 07:33:06;;;;;;;7.22;4.60;;;24.50;53.30;;;;;;5008604;28;20037;-70
2022/09/25 07:35:34;;;;;;;5.15;4.63;;;24.50;53.30;;;;;;5008322;28;20050;-71
2022/09/25 07:38:00;;;;;;;6.25;4.57;;;24.40;53.10;;;;;;5029790;28;20037;-70
2022/09/25 07:40:27;;;;;;;8.05;4.88;;;24.50;53.30;;;;;;5028953;28;20433;-71
2022/09/25 07:43:05;;;;;;;6.78;4.90;;;24.50;53.30;;;;;;5030610;28;20034;-71
2022/09/25 07:45:31;;;;;;;7.85;4.68;;;24.40;53.20;;;;;;5030682;28;20048;-70
2022/09/25 07:48:02;;;;;;;6.45;5.38;;;24.50;53.30;;;;;;5029411;28;20109;-70
2022/09/25 07:50:29;;;;;;;8.43;5.03;;;24.50;52.90;;;;;;5012352;28;20043;-71
2022/09/25 07:52:55;;;;;;;5.68;4.80;;;24.40;53.10;;;;;;5001672;28;20113;-71
2022/09/25 07:55:22;;;;;;;10.57;4.47;;;24.50;53.20;;;;;;5021913;28;20544;-67
2022/09/25 07:57:49;;;;;;;7.10;5.05;;;24.40;53.50;;;;;;5025098;28;20041;-68
2022/09/25 08:00:16;;;;;;;10.48;4.70;;;24.50;56.30;;;;;;5024245;28;20100;-68
2022/09/25 08:02:42;;;;;;;10.50;5.53;;;24.40;58.90;;;;;;5003127;28;20375;-67
2022/09/25 08:05:10;;;;;;;6.90;4.97;;;24.50;57.70;;;;;;5007607;28;20025;-66
2022/09/25 08:07:36;;;;;;;8.10;5.50;;;24.50;55.30;;;;;;5016509;28;20057;-66
2022/09/25 08:10:03;;;;;;;6.47;5.28;;;24.50;54.70;;;;;;5012602;28;20044;-68
2022/09/25 08:12:29;;;;;;;7.10;5.18;;;24.40;53.10;;;;;;5031580;28;20037;-67
2022/09/25 08:14:55;;;;;;;7.80;4.78;;;24.40;54.80;;;;;;5025323;28;20061;-68
2022/09/25 08:17:21;;;;;;;9.20;4.70;;;24.40;55.30;;;;;;5006318;28;20061;-68
2022/09/25 08:19:47;;;;;;;6.80;4.75;;;24.50;55.10;;;;;;5014917;28;20116;-66
2022/09/25 08:22:13;;;;;;;6.50;4.50;;;24.60;54.60;;;;;;5014724;28;20033;-67
2022/09/25 08:24:39;;;;;;;5.10;4.60;;;24.50;54.80;;;;;;5028436;28;20038;-67
2022/09/25 08:27:06;;;;;;;6.47;4.45;;;24.60;54.40;;;;;;5014942;28;20452;-67
2022/09/25 08:29:32;;;;;;;5.60;3.92;;;24.60;54.80;;;;;;5013518;28;20108;-67
2022/09/25 08:31:58;;;;;;;4.80;3.78;;;24.70;54.40;;;;;;5014720;28;20431;-67
2022/09/25 08:34:25;;;;;;;4.82;3.20;;;24.50;54.60;;;;;;5014529;28;20022;-67
2022/09/25 08:36:51;;;;;;;6.15;3.80;;;24.60;54.60;;;;;;5014520;28;20113;-67
2022/09/25 08:39:17;;;;;;;5.45;3.55;;;24.50;54.50;;;;;;5014217;28;20125;-68
2022/09/25 08:41:48;;;;;;;5.38;3.45;;;24.60;54.10;;;;;;5014601;28;20037;-67
2022/09/25 08:44:23;;;;;;;5.95;3.10;;;24.50;53.90;;;;;;5013366;28;20379;-67
2022/09/25 08:49:52;;;;;;;5.00;3.38;;;24.60;53.10;;;;;;5014217;28;20536;-67
2022/09/25 08:52:20;;;;;;;4.00;3.20;;;24.50;54.40;;;;;;5014396;28;20030;-67
2022/09/25 08:54:46;;;;;;;4.20;3.33;;;24.40;54.30;;;;;;5032869;28;20037;-67
2022/09/25 08:57:36;;;;;;;3.33;2.70;;;24.50;54.20;;;;;;5033806;28;20061;-67
2022/09/25 09:00:19;;;;;;;2.97;2.63;;;24.60;54.20;;;;;;5032005;28;20040;-67
2022/09/25 09:02:50;;;;;;;4.22;2.30;;;24.60;54.20;;;;;;5032840;28;20057;-67
2022/09/25 09:05:23;;;;;;;4.50;2.75;;;24.60;54.20;;;;;;5020612;28;20724;-65
2022/09/25 09:07:53;;;;;;;;;;;24.60;54.00;;;;;;5012611;28;20066;-67
2022/09/25 09:10:22;;;;;;;3.40;2.22;;;24.60;54.00;;;;;;5013465;28;19959;-67
2022/09/25 09:13:15;;;;;;;5.00;3.20;;;24.60;53.70;;;;;;5015288;28;20060;-67
2022/09/25 09:16:07;;;;;;;2.60;1.90;;;24.50;54.00;;;;;;5014435;28;20124;-68
2022/09/25 09:18:42;;;;;;;5.68;2.08;;;24.50;54.00;;;;;;4960396;28;20066;-68
2022/09/25 09:21:33;;;;;;;2.90;2.60;;;24.50;54.00;;;;;;4971884;28;20063;-66
2022/09/25 09:24:15;;;;;;;2.33;2.00;;;24.50;51.20;;;;;;4933062;29;20449;-67
2022/09/25 09:26:52;;;;;;;3.15;2.40;;;24.50;53.90;;;;;;4929803;29;20373;-67
2022/09/25 09:29:47;;;;;;;3.53;2.28;;;24.40;53.90;;;;;;4914501;29;20182;-68
2022/09/25 09:32:46;;;;;;;2.03;1.65;;;24.50;54.00;;;;;;4914739;29;20032;-67
2022/09/25 09:35:38;;;;;;;2.67;1.70;;;24.70;54.20;;;;;;4914183;29;20040;-66
2022/09/25 09:38:35;;;;;;;1.83;1.70;;;24.60;54.00;;;;;;4914506;29;20048;-67
2022/09/25 09:41:25;;;;;;;2.67;1.65;;;24.70;54.10;;;;;;4876511;29;20044;-68
2022/09/25 09:44:14;;;;;;;1.63;1.52;;;24.60;54.00;;;;;;4861335;29;20070;-66
2022/09/25 09:47:02;;;;;;;1.67;1.58;;;24.60;53.80;;;;;;4860936;29;20049;-66
2022/09/25 09:49:34;;;;;;;2.53;2.00;;;24.70;54.00;;;;;;4875781;29;20053;-68
2022/09/25 09:52:16;;;;;;;3.80;1.58;;;24.50;53.90;;;;;;4860247;29;20551;-68
2022/09/25 09:55:11;;;;;;;2.20;2.00;;;24.60;53.30;;;;;;4875509;29;20677;-68
2022/09/25 09:57:50;;;;;;;2.08;1.58;;;24.60;53.90;;;;;;4863148;29;20033;-66
2022/09/25 10:00:19;;;;;;;1.70;1.60;;;24.60;53.80;;;;;;4898036;29;20078;-67
2022/09/25 10:02:49;;;;;;;3.20;1.48;;;24.60;53.80;;;;;;4913759;29;20060;-67
2022/09/25 10:05:24;;;;;;;1.95;1.60;;;24.50;53.90;;;;;;4913763;29;20044;-66
2022/09/25 10:07:51;;;;;;;3.53;1.50;;;24.60;53.90;;;;;;4898106;29;20513;-65
2022/09/25 10:10:18;;;;;;;2.05;1.60;;;24.50;53.90;;;;;;4912364;29;20044;-66
2022/09/25 10:12:53;;;;;;;1.27;1.17;;;24.60;53.90;;;;;;4897294;29;20112;-67
2022/09/25 10:16:10;;;;;;;2.45;1.60;;;24.50;53.90;;;;;;4912754;29;20060;-67
2022/09/25 10:18:40;;;;;;;2.00;1.50;;;24.60;53.90;;;;;;4934110;28;20047;-67
2022/09/25 10:21:32;;;;;;;1.77;1.67;;;24.60;53.80;;;;;;4971086;28;20121;-67
2022/09/25 10:23:58;;;;;;;2.38;1.60;;;24.70;53.90;;;;;;4909626;29;20044;-67
2022/09/25 10:26:36;;;;;;;1.85;1.30;;;24.50;53.70;;;;;;4913253;29;20082;-67
2022/09/25 10:29:20;;;;;;;1.60;1.38;;;24.60;53.70;;;;;;4913293;29;20611;-67
2022/09/25 10:31:47;;;;;;;2.05;1.83;;;24.60;53.70;;;;;;4913336;29;20085;-67
2022/09/25 10:34:16;;;;;;;2.17;1.35;;;24.50;53.70;;;;;;4913215;29;20043;-67
2022/09/25 10:36:45;;;;;;;1.83;1.40;;;24.50;53.70;;;;;;4913206;29;20073;-67
2022/09/25 10:39:31;;;;;;;1.95;1.48;;;24.70;53.80;;;;;;4913341;29;20061;-67
2022/09/25 10:41:59;;;;;;;5.03;1.40;;;24.60;53.80;;;;;;4897450;29;20051;-66
2022/09/25 10:44:32;;;;;;;1.52;1.30;;;24.50;53.90;;;;;;4913121;29;20051;-67
2022/09/25 10:50:25;;;;;;;1.65;1.55;;;24.60;53.80;;;;;;4912895;29;19977;-66
2022/09/25 10:53:00;;;;;;;1.58;1.48;;;24.50;53.80;;;;;;4896736;29;20521;-68
2022/09/25 10:55:40;;;;;;;1.58;1.48;;;24.60;53.80;;;;;;4928399;29;20117;-70
2022/09/25 10:58:34;;;;;;;2.95;1.67;;;24.60;53.70;;;;;;4915137;29;20032;-70
2022/09/25 11:01:02;;;;;;;2.00;1.25;;;24.60;51.10;;;;;;4966538;28;20057;-68
2022/09/25 11:03:33;;;;;;;3.67;1.60;;;24.70;52.50;;;;;;5012444;28;20510;-70
2022/09/25 11:06:19;;;;;;;3.67;1.65;;;24.90;51.50;;;;;;5021324;28;20106;-68
2022/09/25 11:09:13;;;;;;;3.25;1.80;;;25.20;52.30;;;;;;5004643;28;20046;-69
2022/09/25 11:11:40;;;;;;;5.07;2.25;;;25.60;51.70;;;;;;5010165;28;20068;-70
2022/09/25 11:14:31;;;;;;;8.27;3.97;;;26.00;52.50;;;;;;5013039;28;20692;-68
2022/09/25 11:16:59;;;;;;;6.20;3.10;;;26.70;60.60;;;;;;5009234;28;20474;-70
2022/09/25 11:19:33;;;;;;;4.97;3.60;;;27.50;54.30;;;;;;5010283;28;20041;-68
2022/09/25 11:22:18;;;;;;;3.05;2.17;;;28.00;55.30;;;;;;5007315;28;20026;-68
2022/09/25 11:24:47;;;;;;;2.53;1.98;;;28.00;49.20;;;;;;5009729;28;20391;-67
2022/09/25 11:27:30;;;;;;;3.70;2.55;;;27.90;49.40;;;;;;5011821;28;20092;-67
2022/09/25 11:30:09;;;;;;;4.45;2.30;;;28.00;47.40;;;;;;5009480;28;20030;-67
2022/09/25 11:33:08;;;;;;;3.25;2.50;;;27.80;47.00;;;;;;5011596;28;20485;-66
2022/09/25 11:35:43;;;;;;;3.10;1.80;;;27.50;44.60;;;;;;5006961;28;20030;-67
2022/09/25 11:41:28;;;;;;;2.60;1.13;;;27.20;42.50;;;;;;5008862;28;20360;-70
2022/09/25 11:44:30;;;;;;;3.10;1.58;;;27.00;48.40;;;;;;5011409;28;20037;-70
2022/09/25 11:47:00;;;;;;;1.20;1.15;;;26.90;38.20;;;;;;5007354;28;20029;-71
2022/09/25 11:49:33;;;;;;;2.13;1.65;;;26.80;47.70;;;;;;5009776;28;20045;-69
2022/09/25 11:52:24;;;;;;;5.85;1.80;;;26.70;46.80;;;;;;5012021;28;20499;-69
2022/09/25 11:55:06;;;;;;;3.42;1.70;;;26.80;46.90;;;;;;5007786;28;20026;-69
2022/09/25 11:57:54;;;;;;;2.13;1.93;;;26.80;47.30;;;;;;5010493;28;20038;-69
2022/09/25 12:01:06;;;;;;;2.55;1.40;;;26.70;47.40;;;;;;5020353;28;20069;-70
2022/09/25 12:03:41;;;;;;;1.40;1.30;;;26.60;47.70;;;;;;5026433;28;20061;-70
2022/09/25 12:06:21;;;;;;;2.58;1.73;;;26.60;48.10;;;;;;5028355;28;20045;-71
2022/09/25 12:08:59;;;;;;;2.58;1.30;;;26.60;47.00;;;;;;5026735;28;20107;-70
2022/09/25 12:11:55;;;;;;;1.88;1.58;;;26.40;45.90;;;;;;4992394;28;20073;-70
2022/09/25 12:14:28;;;;;;;1.50;1.40;;;26.40;46.10;;;;;;5024254;28;20045;-70
2022/09/25 12:17:17;;;;;;;1.52;1.38;;;26.40;43.80;;;;;;5011316;28;20034;-71
2022/09/25 12:19:50;;;;;;;1.30;1.20;;;26.30;45.50;;;;;;5032081;28;20128;-69
2022/09/25 12:22:35;;;;;;;;;;;26.30;45.40;;;;;;5026375;28;20045;-69
2022/09/25 12:25:19;;;;;;;1.83;1.40;;;26.10;46.40;;;;;;5024620;28;19999;-69
2022/09/25 12:28:23;;;;;;;1.30;1.20;;;26.20;46.80;;;;;;5024846;28;20044;-69
2022/09/25 12:31:34;;;;;;;1.30;1.20;;;26.20;47.00;;;;;;4947834;28;20567;-70
2022/09/25 12:34:49;;;;;;;1.70;1.60;;;26.10;47.20;;;;;;4893025;29;20036;-70
2022/09/25 12:37:24;;;;;;;1.75;1.33;;;26.00;47.50;;;;;;4835234;29;20046;-70
2022/09/25 12:40:01;;;;;;;1.40;1.30;;;26.10;47.60;;;;;;4837591;29;20042;-71
2022/09/25 12:42:54;;;;;;;1.73;1.40;;;26.00;47.70;;;;;;4837757;29;20523;-71
2022/09/25 12:45:39;;;;;;;1.48;1.38;;;26.00;47.80;;;;;;4820108;29;20061;-70
2022/09/25 12:48:25;;;;;;;2.30;1.85;;;25.90;47.20;;;;;;4821034;29;20046;-71
2022/09/25 12:51:06;;;;;;;1.30;1.20;;;25.80;46.30;;;;;;4821251;29;20046;-70
2022/09/25 12:53:40;;;;;;;1.88;1.65;;;25.80;44.40;;;;;;4820671;29;20110;-70
2022/09/25 12:56:28;;;;;;;1.67;1.40;;;25.90;44.50;;;;;;4821356;29;20050;-71
2022/09/25 12:59:08;;;;;;;1.35;1.25;;;25.80;42.90;;;;;;4821227;29;20519;-70
2022/09/25 13:02:20;;;;;;;1.90;1.45;;;25.80;42.90;;;;;;4820925;29;20127;-70
2022/09/25 13:05:03;;;;;;;1.98;1.50;;;25.80;42.40;;;;;;4779873;29;20238;-70
2022/09/25 13:07:48;;;;;;;1.10;1.10;;;25.70;42.20;;;;;;4790568;29;20090;-71
2022/09/25 13:10:20;;;;;;;1.60;1.42;;;25.80;42.20;;;;;;4807377;29;20055;-71
2022/09/25 13:12:48;;;;;;;0.98;0.98;;;25.70;42.10;;;;;;4836939;29;20612;-70
2022/09/25 13:15:36;;;;;;;2.10;1.55;;;25.60;42.40;;;;;;4864286;29;20052;-69
2022/09/25 13:18:06;;;;;;;1.63;1.10;;;25.60;42.60;;;;;;4858073;29;20042;-69
2022/09/25 13:20:33;;;;;;;3.05;1.45;;;25.70;42.90;;;;;;4860651;29;20061;-69
2022/09/25 13:23:40;;;;;;;1.20;1.10;;;25.60;43.10;;;;;;4917347;29;20477;-69
2022/09/25 13:26:13;;;;;;;1.65;1.42;;;25.50;43.30;;;;;;4932763;29;20042;-69
2022/09/25 13:28:46;;;;;;;2.78;1.58;;;25.70;43.50;;;;;;4930493;29;20048;-69
2022/09/25 13:31:22;;;;;;;1.38;1.27;;;25.50;43.70;;;;;;4930031;29;20123;-69
2022/09/25 13:33:59;;;;;;;1.52;1.42;;;25.60;43.90;;;;;;4932532;29;20036;-69
2022/09/25 13:36:25;;;;;;;1.35;1.25;;;25.60;44.00;;;;;;5003954;28;20049;-69
2022/09/25 13:42:01;;;;;;;1.27;1.17;;;25.60;44.40;;;;;;5009110;28;20029;-69
2022/09/25 13:44:42;;;;;;;2.45;1.33;;;25.50;44.60;;;;;;5025245;28;20026;-69